FARB Airport Information

Runway Information
Runway 05 Length 4265 ft width 69 ft
Elevation 73 ft Threshold 0 ft Heading 34
Runway 23 Length 4265 ft Width 69 ft
Elevation 109 ft Threshold 0 ft Heading 214
Airport Frequencies
Type APP Name APP Frequency 118.9 MHZ
Type TWR Name TWR Frequency 118.9 MHZ
Airport Navaids
Type NDB Name Richards Bay Frequency 337 KHZ
Type VOR-DME Name Richards Bay Frequency 113000 KHZ
Type NDB Name Richards Bay Frequency 465 KHZ
Airport Weather Information & NOTAM
ADDS - METARS form results

(1615 UTC 19 May 2022)
Data provider http://aviationweather.gov/metar/data/
 
Forecast for: FARB (RICHARD'S BAY , ZA)
Text: TAF FARB 190900Z 1910/1918 02010KT CAVOK TX29/1912Z TN21/1918Z
Forecast period: 1000 to 1800 UTC 19 May 2022
Forecast type: FROM: standard forecast or significant change
Winds: from the NNE (20 degrees) at 12 MPH (10 knots; 5.1 m/s)
Visibility: 6 or more miles (10+ km)
Ceiling: unknown
Clouds: missing
Weather: no significant weather forecast for this period